<?xml version="1.0" encoding="UTF-8" standalone="no" ?>
<gpx xmlns="http://www.topografix.com/GPX/1/1" xmlns:xsi="http://www.w3.org/2001/XMLSchema-instance" xsi:schemaLocation="http://www.topografix.com/GPX/1/1 http://www.topografix.com/GPX/1/1/gpx.xsd" version="1.1" creator="VisuGPX - https://www.visugpx.com">
  <metadata>
    <name>AVF-15-10-2013-Le Muy - Les Pradinaux</name>
    <desc><![CDATA[Le Muy - Les Pradinaux]]></desc>
  </metadata>
  <trk>
    <name><![CDATA[]]></name>
    <desc><![CDATA[<h1>OruxMaps</h1><br /><hr align="center" width="480" style="height: 2px; width: 517px"/><h2>Nom: </h2><br /><p>Temps de départ: 10/15/2013 13:55</p><p>Temps d'arrivée: 10/15/2013 16:35</p><p>Distance: 7,5 km (02:07)</p><p>Temps déplacement: 01:57</p><p>Vitesse moyenne: 3,6 km/h</p><p>Vitesse moyenne: 3,8 km/h</p><p>Vitess Max.: 38,7 km/h</p><p>Altitude minimale: -2 m</p><p>Altitude maximale: 137 m</p><p>Vitesse d'élévation: 225,8 m/h</p><p>Vitesse de descente: -157 m/h</p><p>Gain Altitude: 129 m</p><p>Perte Altitude: -110 m</p><p>Temps d'élévation: 00:34</p><p>Temps de descente: 00:42</p><hr align="center" width="480" style="height: 2px; width: 517px"/>]]></desc>
    <trkseg>
      <trkpt lat="43.50461" lon="6.59063">
        <ele>-2.75</ele>
        <time>2013-10-15T11:55:57Z</time>
      </trkpt>
      <trkpt lat="43.50451" lon="6.5906">
        <ele>13.31</ele>
        <time>2013-10-15T11:56:22Z</time>
      </trkpt>
      <trkpt lat="43.50442" lon="6.59054">
        <ele>18.52</ele>
        <time>2013-10-15T11:56:34Z</time>
      </trkpt>
      <trkpt lat="43.50456" lon="6.59034">
        <ele>17.75</ele>
        <time>2013-10-15T11:57:22Z</time>
      </trkpt>
      <trkpt lat="43.50475" lon="6.59029">
        <ele>19.23</ele>
        <time>2013-10-15T11:57:38Z</time>
      </trkpt>
      <trkpt lat="43.50493" lon="6.59031">
        <ele>21.26</ele>
        <time>2013-10-15T11:57:52Z</time>
      </trkpt>
      <trkpt lat="43.50512" lon="6.59025">
        <ele>24.43</ele>
        <time>2013-10-15T11:58:08Z</time>
      </trkpt>
      <trkpt lat="43.5053" lon="6.59033">
        <ele>27.05</ele>
        <time>2013-10-15T11:58:17Z</time>
      </trkpt>
      <trkpt lat="43.50554" lon="6.59024">
        <ele>31.29</ele>
        <time>2013-10-15T11:58:41Z</time>
      </trkpt>
      <trkpt lat="43.50576" lon="6.59022">
        <ele>33.85</ele>
        <time>2013-10-15T11:59:02Z</time>
      </trkpt>
      <trkpt lat="43.50594" lon="6.59022">
        <ele>34.83</ele>
        <time>2013-10-15T11:59:25Z</time>
      </trkpt>
      <trkpt lat="43.50594" lon="6.59022">
        <ele>34.83</ele>
        <time>2013-10-15T11:59:25Z</time>
      </trkpt>
      <trkpt lat="43.50612" lon="6.59017">
        <ele>33.24</ele>
        <time>2013-10-15T11:59:47Z</time>
      </trkpt>
      <trkpt lat="43.50629" lon="6.59008">
        <ele>31.72</ele>
        <time>2013-10-15T12:00:11Z</time>
      </trkpt>
      <trkpt lat="43.50651" lon="6.59005">
        <ele>31.36</ele>
        <time>2013-10-15T12:00:41Z</time>
      </trkpt>
      <trkpt lat="43.50672" lon="6.59005">
        <ele>31.24</ele>
        <time>2013-10-15T12:00:51Z</time>
      </trkpt>
      <trkpt lat="43.50692" lon="6.59002">
        <ele>30.64</ele>
        <time>2013-10-15T12:01:17Z</time>
      </trkpt>
      <trkpt lat="43.50711" lon="6.58995">
        <ele>29.02</ele>
        <time>2013-10-15T12:01:35Z</time>
      </trkpt>
      <trkpt lat="43.5073" lon="6.58988">
        <ele>29.42</ele>
        <time>2013-10-15T12:01:57Z</time>
      </trkpt>
      <trkpt lat="43.50748" lon="6.58978">
        <ele>30</ele>
        <time>2013-10-15T12:02:28Z</time>
      </trkpt>
      <trkpt lat="43.50748" lon="6.58978">
        <ele>30</ele>
        <time>2013-10-15T12:02:28Z</time>
      </trkpt>
      <trkpt lat="43.50765" lon="6.5897">
        <ele>31.7</ele>
        <time>2013-10-15T12:02:40Z</time>
      </trkpt>
      <trkpt lat="43.50774" lon="6.58948">
        <ele>32.29</ele>
        <time>2013-10-15T12:02:56Z</time>
      </trkpt>
      <trkpt lat="43.50787" lon="6.5893">
        <ele>33.33</ele>
        <time>2013-10-15T12:03:18Z</time>
      </trkpt>
      <trkpt lat="43.50806" lon="6.58928">
        <ele>32.18</ele>
        <time>2013-10-15T12:03:40Z</time>
      </trkpt>
      <trkpt lat="43.50824" lon="6.58926">
        <ele>30.39</ele>
        <time>2013-10-15T12:03:58Z</time>
      </trkpt>
      <trkpt lat="43.50845" lon="6.58932">
        <ele>31.19</ele>
        <time>2013-10-15T12:04:21Z</time>
      </trkpt>
      <trkpt lat="43.50866" lon="6.58935">
        <ele>33.46</ele>
        <time>2013-10-15T12:04:29Z</time>
      </trkpt>
      <trkpt lat="43.50885" lon="6.58933">
        <ele>36.14</ele>
        <time>2013-10-15T12:05:17Z</time>
      </trkpt>
      <trkpt lat="43.50885" lon="6.58933">
        <ele>36.14</ele>
        <time>2013-10-15T12:05:17Z</time>
      </trkpt>
      <trkpt lat="43.50904" lon="6.58933">
        <ele>35.8</ele>
        <time>2013-10-15T12:05:37Z</time>
      </trkpt>
      <trkpt lat="43.50924" lon="6.58933">
        <ele>35.91</ele>
        <time>2013-10-15T12:05:51Z</time>
      </trkpt>
      <trkpt lat="43.50943" lon="6.58929">
        <ele>35.01</ele>
        <time>2013-10-15T12:06:09Z</time>
      </trkpt>
      <trkpt lat="43.50962" lon="6.58922">
        <ele>34.6</ele>
        <time>2013-10-15T12:06:25Z</time>
      </trkpt>
      <trkpt lat="43.50982" lon="6.58917">
        <ele>34.18</ele>
        <time>2013-10-15T12:06:47Z</time>
      </trkpt>
      <trkpt lat="43.51001" lon="6.58914">
        <ele>33.91</ele>
        <time>2013-10-15T12:07:07Z</time>
      </trkpt>
      <trkpt lat="43.51019" lon="6.58905">
        <ele>33.81</ele>
        <time>2013-10-15T12:07:29Z</time>
      </trkpt>
      <trkpt lat="43.51035" lon="6.58892">
        <ele>33.43</ele>
        <time>2013-10-15T12:07:45Z</time>
      </trkpt>
      <trkpt lat="43.5105" lon="6.58876">
        <ele>32.81</ele>
        <time>2013-10-15T12:08:01Z</time>
      </trkpt>
      <trkpt lat="43.51065" lon="6.5886">
        <ele>33</ele>
        <time>2013-10-15T12:08:17Z</time>
      </trkpt>
      <trkpt lat="43.51065" lon="6.5886">
        <ele>33</ele>
        <time>2013-10-15T12:08:17Z</time>
      </trkpt>
      <trkpt lat="43.5108" lon="6.58841">
        <ele>32.99</ele>
        <time>2013-10-15T12:08:35Z</time>
      </trkpt>
      <trkpt lat="43.51093" lon="6.58824">
        <ele>32.53</ele>
        <time>2013-10-15T12:08:51Z</time>
      </trkpt>
      <trkpt lat="43.51109" lon="6.58809">
        <ele>32.28</ele>
        <time>2013-10-15T12:09:07Z</time>
      </trkpt>
      <trkpt lat="43.51125" lon="6.58812">
        <ele>32.54</ele>
        <time>2013-10-15T12:09:59Z</time>
      </trkpt>
      <trkpt lat="43.5113" lon="6.58805">
        <ele>33.37</ele>
        <time>2013-10-15T12:10:33Z</time>
      </trkpt>
      <trkpt lat="43.51127" lon="6.5878">
        <ele>33.65</ele>
        <time>2013-10-15T12:10:53Z</time>
      </trkpt>
      <trkpt lat="43.51132" lon="6.58767">
        <ele>34.28</ele>
        <time>2013-10-15T12:11:26Z</time>
      </trkpt>
      <trkpt lat="43.51132" lon="6.58767">
        <ele>34.28</ele>
        <time>2013-10-15T12:11:26Z</time>
      </trkpt>
      <trkpt lat="43.51148" lon="6.58752">
        <ele>34.17</ele>
        <time>2013-10-15T12:11:41Z</time>
      </trkpt>
      <trkpt lat="43.51157" lon="6.5873">
        <ele>32.89</ele>
        <time>2013-10-15T12:12:13Z</time>
      </trkpt>
      <trkpt lat="43.51175" lon="6.58714">
        <ele>33.86</ele>
        <time>2013-10-15T12:12:37Z</time>
      </trkpt>
      <trkpt lat="43.51186" lon="6.58692">
        <ele>34.76</ele>
        <time>2013-10-15T12:13:01Z</time>
      </trkpt>
      <trkpt lat="43.51201" lon="6.58674">
        <ele>34.4</ele>
        <time>2013-10-15T12:13:19Z</time>
      </trkpt>
      <trkpt lat="43.51217" lon="6.58661">
        <ele>33.04</ele>
        <time>2013-10-15T12:13:43Z</time>
      </trkpt>
      <trkpt lat="43.51236" lon="6.58666">
        <ele>31.35</ele>
        <time>2013-10-15T12:14:00Z</time>
      </trkpt>
      <trkpt lat="43.51252" lon="6.58679">
        <ele>27.98</ele>
        <time>2013-10-15T12:14:12Z</time>
      </trkpt>
      <trkpt lat="43.51272" lon="6.58688">
        <ele>27.48</ele>
        <time>2013-10-15T12:14:22Z</time>
      </trkpt>
      <trkpt lat="43.51272" lon="6.58688">
        <ele>27.48</ele>
        <time>2013-10-15T12:14:22Z</time>
      </trkpt>
      <trkpt lat="43.5129" lon="6.58693">
        <ele>30.11</ele>
        <time>2013-10-15T12:14:38Z</time>
      </trkpt>
      <trkpt lat="43.51309" lon="6.58704">
        <ele>30.48</ele>
        <time>2013-10-15T12:15:12Z</time>
      </trkpt>
      <trkpt lat="43.51327" lon="6.58715">
        <ele>29.38</ele>
        <time>2013-10-15T12:15:24Z</time>
      </trkpt>
      <trkpt lat="43.51344" lon="6.58724">
        <ele>29.72</ele>
        <time>2013-10-15T12:15:38Z</time>
      </trkpt>
      <trkpt lat="43.5136" lon="6.58738">
        <ele>31.18</ele>
        <time>2013-10-15T12:15:52Z</time>
      </trkpt>
      <trkpt lat="43.51374" lon="6.58755">
        <ele>35.47</ele>
        <time>2013-10-15T12:16:16Z</time>
      </trkpt>
      <trkpt lat="43.51388" lon="6.58773">
        <ele>37.82</ele>
        <time>2013-10-15T12:16:38Z</time>
      </trkpt>
      <trkpt lat="43.51407" lon="6.58774">
        <ele>37.03</ele>
        <time>2013-10-15T12:17:00Z</time>
      </trkpt>
      <trkpt lat="43.51424" lon="6.58764">
        <ele>36.25</ele>
        <time>2013-10-15T12:17:22Z</time>
      </trkpt>
      <trkpt lat="43.51424" lon="6.58764">
        <ele>36.25</ele>
        <time>2013-10-15T12:17:22Z</time>
      </trkpt>
      <trkpt lat="43.51442" lon="6.58756">
        <ele>36.06</ele>
        <time>2013-10-15T12:17:44Z</time>
      </trkpt>
      <trkpt lat="43.51456" lon="6.5874">
        <ele>35.48</ele>
        <time>2013-10-15T12:18:02Z</time>
      </trkpt>
      <trkpt lat="43.51466" lon="6.58718">
        <ele>36.75</ele>
        <time>2013-10-15T12:18:20Z</time>
      </trkpt>
      <trkpt lat="43.51455" lon="6.58696">
        <ele>38.16</ele>
        <time>2013-10-15T12:18:40Z</time>
      </trkpt>
      <trkpt lat="43.51443" lon="6.58675">
        <ele>39.93</ele>
        <time>2013-10-15T12:19:04Z</time>
      </trkpt>
      <trkpt lat="43.51443" lon="6.58649">
        <ele>40.98</ele>
        <time>2013-10-15T12:19:26Z</time>
      </trkpt>
      <trkpt lat="43.51462" lon="6.5864">
        <ele>41.15</ele>
        <time>2013-10-15T12:19:54Z</time>
      </trkpt>
      <trkpt lat="43.5148" lon="6.58638">
        <ele>42.06</ele>
        <time>2013-10-15T12:20:14Z</time>
      </trkpt>
      <trkpt lat="43.515" lon="6.58635">
        <ele>42.73</ele>
        <time>2013-10-15T12:20:30Z</time>
      </trkpt>
      <trkpt lat="43.515" lon="6.58635">
        <ele>42.73</ele>
        <time>2013-10-15T12:20:30Z</time>
      </trkpt>
      <trkpt lat="43.51519" lon="6.58633">
        <ele>43.08</ele>
        <time>2013-10-15T12:20:48Z</time>
      </trkpt>
      <trkpt lat="43.51537" lon="6.58629">
        <ele>43.4</ele>
        <time>2013-10-15T12:21:04Z</time>
      </trkpt>
      <trkpt lat="43.51558" lon="6.58631">
        <ele>43.65</ele>
        <time>2013-10-15T12:21:22Z</time>
      </trkpt>
      <trkpt lat="43.51575" lon="6.5864">
        <ele>44.19</ele>
        <time>2013-10-15T12:21:40Z</time>
      </trkpt>
      <trkpt lat="43.51594" lon="6.58641">
        <ele>45.34</ele>
        <time>2013-10-15T12:22:00Z</time>
      </trkpt>
      <trkpt lat="43.51594" lon="6.58614">
        <ele>44.87</ele>
        <time>2013-10-15T12:22:22Z</time>
      </trkpt>
      <trkpt lat="43.51598" lon="6.5859">
        <ele>44.46</ele>
        <time>2013-10-15T12:22:42Z</time>
      </trkpt>
      <trkpt lat="43.51614" lon="6.58574">
        <ele>45.09</ele>
        <time>2013-10-15T12:23:08Z</time>
      </trkpt>
      <trkpt lat="43.51632" lon="6.5857">
        <ele>45.54</ele>
        <time>2013-10-15T12:23:26Z</time>
      </trkpt>
      <trkpt lat="43.51632" lon="6.5857">
        <ele>45.54</ele>
        <time>2013-10-15T12:23:26Z</time>
      </trkpt>
      <trkpt lat="43.51652" lon="6.58566">
        <ele>46.37</ele>
        <time>2013-10-15T12:23:48Z</time>
      </trkpt>
      <trkpt lat="43.51672" lon="6.58567">
        <ele>47.41</ele>
        <time>2013-10-15T12:24:08Z</time>
      </trkpt>
      <trkpt lat="43.51691" lon="6.58573">
        <ele>47.77</ele>
        <time>2013-10-15T12:24:24Z</time>
      </trkpt>
      <trkpt lat="43.5171" lon="6.58581">
        <ele>48.03</ele>
        <time>2013-10-15T12:24:52Z</time>
      </trkpt>
      <trkpt lat="43.51729" lon="6.5858">
        <ele>48.47</ele>
        <time>2013-10-15T12:25:22Z</time>
      </trkpt>
      <trkpt lat="43.51748" lon="6.58579">
        <ele>49.5</ele>
        <time>2013-10-15T12:25:40Z</time>
      </trkpt>
      <trkpt lat="43.51767" lon="6.58575">
        <ele>49.52</ele>
        <time>2013-10-15T12:25:58Z</time>
      </trkpt>
      <trkpt lat="43.51767" lon="6.58575">
        <ele>49.52</ele>
        <time>2013-10-15T12:25:58Z</time>
      </trkpt>
      <trkpt lat="43.5182" lon="6.58588">
        <ele>60.62</ele>
        <time>2013-10-15T12:26:44Z</time>
      </trkpt>
      <trkpt lat="43.51808" lon="6.58568">
        <ele>59.63</ele>
        <time>2013-10-15T12:26:51Z</time>
      </trkpt>
      <trkpt lat="43.51824" lon="6.58552">
        <ele>56.71</ele>
        <time>2013-10-15T12:27:11Z</time>
      </trkpt>
      <trkpt lat="43.51838" lon="6.58535">
        <ele>54.9</ele>
        <time>2013-10-15T12:27:29Z</time>
      </trkpt>
      <trkpt lat="43.51853" lon="6.5852">
        <ele>53.71</ele>
        <time>2013-10-15T12:27:45Z</time>
      </trkpt>
      <trkpt lat="43.51863" lon="6.58499">
        <ele>51.88</ele>
        <time>2013-10-15T12:28:03Z</time>
      </trkpt>
      <trkpt lat="43.51877" lon="6.58479">
        <ele>49.54</ele>
        <time>2013-10-15T12:28:21Z</time>
      </trkpt>
      <trkpt lat="43.51894" lon="6.58468">
        <ele>47.68</ele>
        <time>2013-10-15T12:28:39Z</time>
      </trkpt>
      <trkpt lat="43.51912" lon="6.58462">
        <ele>45.92</ele>
        <time>2013-10-15T12:28:57Z</time>
      </trkpt>
      <trkpt lat="43.51912" lon="6.58462">
        <ele>45.92</ele>
        <time>2013-10-15T12:28:57Z</time>
      </trkpt>
      <trkpt lat="43.51931" lon="6.58452">
        <ele>42.8</ele>
        <time>2013-10-15T12:29:57Z</time>
      </trkpt>
      <trkpt lat="43.51936" lon="6.58445">
        <ele>42.77</ele>
        <time>2013-10-15T12:30:01Z</time>
      </trkpt>
      <trkpt lat="43.51936" lon="6.58419">
        <ele>43.24</ele>
        <time>2013-10-15T12:30:34Z</time>
      </trkpt>
      <trkpt lat="43.51938" lon="6.58393">
        <ele>43.06</ele>
        <time>2013-10-15T12:30:48Z</time>
      </trkpt>
      <trkpt lat="43.51944" lon="6.58369">
        <ele>42.51</ele>
        <time>2013-10-15T12:31:06Z</time>
      </trkpt>
      <trkpt lat="43.51958" lon="6.5835">
        <ele>42.41</ele>
        <time>2013-10-15T12:31:15Z</time>
      </trkpt>
      <trkpt lat="43.51944" lon="6.58352">
        <ele>42.12</ele>
        <time>2013-10-15T12:32:10Z</time>
      </trkpt>
      <trkpt lat="43.51944" lon="6.58352">
        <ele>42.12</ele>
        <time>2013-10-15T12:32:10Z</time>
      </trkpt>
      <trkpt lat="43.51944" lon="6.58354">
        <ele>41.91</ele>
        <time>2013-10-15T12:32:42Z</time>
      </trkpt>
      <trkpt lat="43.51951" lon="6.58355">
        <ele>41.29</ele>
        <time>2013-10-15T12:34:38Z</time>
      </trkpt>
      <trkpt lat="43.51947" lon="6.58353">
        <ele>41.46</ele>
        <time>2013-10-15T12:35:08Z</time>
      </trkpt>
      <trkpt lat="43.51942" lon="6.58353">
        <ele>41.46</ele>
        <time>2013-10-15T12:36:23Z</time>
      </trkpt>
      <trkpt lat="43.51944" lon="6.58349">
        <ele>41.68</ele>
        <time>2013-10-15T12:37:31Z</time>
      </trkpt>
      <trkpt lat="43.51936" lon="6.58347">
        <ele>41.6</ele>
        <time>2013-10-15T12:38:09Z</time>
      </trkpt>
      <trkpt lat="43.51936" lon="6.58347">
        <ele>41.6</ele>
        <time>2013-10-15T12:38:09Z</time>
      </trkpt>
      <trkpt lat="43.51947" lon="6.58326">
        <ele>42.64</ele>
        <time>2013-10-15T12:38:35Z</time>
      </trkpt>
      <trkpt lat="43.51963" lon="6.58315">
        <ele>42.52</ele>
        <time>2013-10-15T12:39:01Z</time>
      </trkpt>
      <trkpt lat="43.5198" lon="6.58303">
        <ele>41.38</ele>
        <time>2013-10-15T12:39:29Z</time>
      </trkpt>
      <trkpt lat="43.51994" lon="6.58286">
        <ele>41.96</ele>
        <time>2013-10-15T12:39:51Z</time>
      </trkpt>
      <trkpt lat="43.52013" lon="6.58285">
        <ele>41.5</ele>
        <time>2013-10-15T12:40:19Z</time>
      </trkpt>
      <trkpt lat="43.52032" lon="6.58277">
        <ele>41.42</ele>
        <time>2013-10-15T12:40:39Z</time>
      </trkpt>
      <trkpt lat="43.52052" lon="6.58275">
        <ele>42.61</ele>
        <time>2013-10-15T12:40:59Z</time>
      </trkpt>
      <trkpt lat="43.52067" lon="6.58259">
        <ele>42.46</ele>
        <time>2013-10-15T12:41:17Z</time>
      </trkpt>
      <trkpt lat="43.52067" lon="6.58259">
        <ele>42.46</ele>
        <time>2013-10-15T12:41:17Z</time>
      </trkpt>
      <trkpt lat="43.5208" lon="6.5824">
        <ele>43.11</ele>
        <time>2013-10-15T12:41:35Z</time>
      </trkpt>
      <trkpt lat="43.52099" lon="6.58233">
        <ele>43.85</ele>
        <time>2013-10-15T12:41:53Z</time>
      </trkpt>
      <trkpt lat="43.52114" lon="6.58217">
        <ele>44.44</ele>
        <time>2013-10-15T12:42:11Z</time>
      </trkpt>
      <trkpt lat="43.52127" lon="6.58197">
        <ele>44.09</ele>
        <time>2013-10-15T12:42:33Z</time>
      </trkpt>
      <trkpt lat="43.52141" lon="6.58179">
        <ele>44.96</ele>
        <time>2013-10-15T12:42:53Z</time>
      </trkpt>
      <trkpt lat="43.52159" lon="6.58179">
        <ele>48.86</ele>
        <time>2013-10-15T12:44:18Z</time>
      </trkpt>
      <trkpt lat="43.52175" lon="6.58163">
        <ele>49.47</ele>
        <time>2013-10-15T12:44:34Z</time>
      </trkpt>
      <trkpt lat="43.52194" lon="6.58162">
        <ele>50.4</ele>
        <time>2013-10-15T12:44:52Z</time>
      </trkpt>
      <trkpt lat="43.52206" lon="6.58182">
        <ele>52.47</ele>
        <time>2013-10-15T12:45:12Z</time>
      </trkpt>
      <trkpt lat="43.52205" lon="6.58209">
        <ele>53.87</ele>
        <time>2013-10-15T12:45:34Z</time>
      </trkpt>
      <trkpt lat="43.52201" lon="6.58234">
        <ele>55.24</ele>
        <time>2013-10-15T12:45:54Z</time>
      </trkpt>
      <trkpt lat="43.52196" lon="6.58258">
        <ele>56.69</ele>
        <time>2013-10-15T12:46:16Z</time>
      </trkpt>
      <trkpt lat="43.52195" lon="6.58283">
        <ele>59.08</ele>
        <time>2013-10-15T12:46:36Z</time>
      </trkpt>
      <trkpt lat="43.52189" lon="6.58309">
        <ele>60.79</ele>
        <time>2013-10-15T12:46:56Z</time>
      </trkpt>
      <trkpt lat="43.52174" lon="6.58325">
        <ele>61.88</ele>
        <time>2013-10-15T12:47:16Z</time>
      </trkpt>
      <trkpt lat="43.52174" lon="6.58325">
        <ele>61.88</ele>
        <time>2013-10-15T12:47:16Z</time>
      </trkpt>
      <trkpt lat="43.52164" lon="6.58345">
        <ele>63.16</ele>
        <time>2013-10-15T12:47:36Z</time>
      </trkpt>
      <trkpt lat="43.52152" lon="6.58365">
        <ele>64.34</ele>
        <time>2013-10-15T12:47:56Z</time>
      </trkpt>
      <trkpt lat="43.5214" lon="6.58384">
        <ele>65.62</ele>
        <time>2013-10-15T12:48:18Z</time>
      </trkpt>
      <trkpt lat="43.52127" lon="6.58402">
        <ele>66.56</ele>
        <time>2013-10-15T12:48:38Z</time>
      </trkpt>
      <trkpt lat="43.52116" lon="6.58424">
        <ele>67.44</ele>
        <time>2013-10-15T12:48:56Z</time>
      </trkpt>
      <trkpt lat="43.52111" lon="6.58443">
        <ele>67.89</ele>
        <time>2013-10-15T12:50:18Z</time>
      </trkpt>
      <trkpt lat="43.52111" lon="6.58443">
        <ele>67.89</ele>
        <time>2013-10-15T12:50:18Z</time>
      </trkpt>
      <trkpt lat="43.52111" lon="6.58439">
        <ele>68.41</ele>
        <time>2013-10-15T12:50:44Z</time>
      </trkpt>
      <trkpt lat="43.52109" lon="6.5844">
        <ele>68.31</ele>
        <time>2013-10-15T12:51:08Z</time>
      </trkpt>
      <trkpt lat="43.52113" lon="6.58441">
        <ele>67.93</ele>
        <time>2013-10-15T12:52:44Z</time>
      </trkpt>
      <trkpt lat="43.5211" lon="6.58442">
        <ele>68.1</ele>
        <time>2013-10-15T12:53:08Z</time>
      </trkpt>
      <trkpt lat="43.5211" lon="6.58439">
        <ele>67.75</ele>
        <time>2013-10-15T12:53:46Z</time>
      </trkpt>
      <trkpt lat="43.52095" lon="6.58454">
        <ele>68.83</ele>
        <time>2013-10-15T12:54:08Z</time>
      </trkpt>
      <trkpt lat="43.52084" lon="6.58476">
        <ele>69.01</ele>
        <time>2013-10-15T12:54:32Z</time>
      </trkpt>
      <trkpt lat="43.52078" lon="6.58502">
        <ele>69.79</ele>
        <time>2013-10-15T12:55:18Z</time>
      </trkpt>
      <trkpt lat="43.52071" lon="6.58527">
        <ele>69.49</ele>
        <time>2013-10-15T12:55:36Z</time>
      </trkpt>
      <trkpt lat="43.52061" lon="6.58548">
        <ele>68.46</ele>
        <time>2013-10-15T12:55:58Z</time>
      </trkpt>
      <trkpt lat="43.5207" lon="6.5857">
        <ele>68.37</ele>
        <time>2013-10-15T12:56:24Z</time>
      </trkpt>
      <trkpt lat="43.5207" lon="6.5857">
        <ele>68.37</ele>
        <time>2013-10-15T12:56:24Z</time>
      </trkpt>
      <trkpt lat="43.52084" lon="6.58589">
        <ele>67.91</ele>
        <time>2013-10-15T12:56:42Z</time>
      </trkpt>
      <trkpt lat="43.52084" lon="6.58615">
        <ele>68.13</ele>
        <time>2013-10-15T12:57:12Z</time>
      </trkpt>
      <trkpt lat="43.52079" lon="6.58642">
        <ele>68.99</ele>
        <time>2013-10-15T12:57:30Z</time>
      </trkpt>
      <trkpt lat="43.52092" lon="6.58662">
        <ele>68.45</ele>
        <time>2013-10-15T12:57:50Z</time>
      </trkpt>
      <trkpt lat="43.52104" lon="6.58681">
        <ele>67.05</ele>
        <time>2013-10-15T12:58:18Z</time>
      </trkpt>
      <trkpt lat="43.5211" lon="6.58706">
        <ele>67.22</ele>
        <time>2013-10-15T12:58:40Z</time>
      </trkpt>
      <trkpt lat="43.52113" lon="6.58731">
        <ele>67.9</ele>
        <time>2013-10-15T12:59:04Z</time>
      </trkpt>
      <trkpt lat="43.52116" lon="6.58758">
        <ele>69.19</ele>
        <time>2013-10-15T12:59:20Z</time>
      </trkpt>
      <trkpt lat="43.52116" lon="6.58758">
        <ele>69.19</ele>
        <time>2013-10-15T12:59:20Z</time>
      </trkpt>
      <trkpt lat="43.52118" lon="6.58784">
        <ele>70.3</ele>
        <time>2013-10-15T12:59:44Z</time>
      </trkpt>
      <trkpt lat="43.52122" lon="6.58809">
        <ele>70.57</ele>
        <time>2013-10-15T13:00:10Z</time>
      </trkpt>
      <trkpt lat="43.52134" lon="6.5883">
        <ele>68.98</ele>
        <time>2013-10-15T13:00:33Z</time>
      </trkpt>
      <trkpt lat="43.52146" lon="6.5885">
        <ele>67.39</ele>
        <time>2013-10-15T13:00:57Z</time>
      </trkpt>
      <trkpt lat="43.52155" lon="6.58873">
        <ele>67.65</ele>
        <time>2013-10-15T13:01:21Z</time>
      </trkpt>
      <trkpt lat="43.52168" lon="6.58892">
        <ele>66.99</ele>
        <time>2013-10-15T13:01:48Z</time>
      </trkpt>
      <trkpt lat="43.52177" lon="6.58914">
        <ele>66.74</ele>
        <time>2013-10-15T13:02:12Z</time>
      </trkpt>
      <trkpt lat="43.52186" lon="6.58937">
        <ele>67.84</ele>
        <time>2013-10-15T13:02:32Z</time>
      </trkpt>
      <trkpt lat="43.52186" lon="6.58937">
        <ele>67.84</ele>
        <time>2013-10-15T13:02:32Z</time>
      </trkpt>
      <trkpt lat="43.52189" lon="6.58963">
        <ele>70.56</ele>
        <time>2013-10-15T13:02:52Z</time>
      </trkpt>
      <trkpt lat="43.52186" lon="6.58989">
        <ele>73.03</ele>
        <time>2013-10-15T13:03:14Z</time>
      </trkpt>
      <trkpt lat="43.52185" lon="6.59014">
        <ele>75.48</ele>
        <time>2013-10-15T13:03:34Z</time>
      </trkpt>
      <trkpt lat="43.52179" lon="6.59039">
        <ele>77.44</ele>
        <time>2013-10-15T13:04:00Z</time>
      </trkpt>
      <trkpt lat="43.52179" lon="6.59063">
        <ele>78.71</ele>
        <time>2013-10-15T13:04:22Z</time>
      </trkpt>
      <trkpt lat="43.52176" lon="6.59089">
        <ele>79.72</ele>
        <time>2013-10-15T13:04:42Z</time>
      </trkpt>
      <trkpt lat="43.52172" lon="6.59115">
        <ele>80.86</ele>
        <time>2013-10-15T13:05:02Z</time>
      </trkpt>
      <trkpt lat="43.52171" lon="6.59141">
        <ele>82.03</ele>
        <time>2013-10-15T13:05:26Z</time>
      </trkpt>
      <trkpt lat="43.52171" lon="6.59141">
        <ele>82.03</ele>
        <time>2013-10-15T13:05:26Z</time>
      </trkpt>
      <trkpt lat="43.52177" lon="6.59165">
        <ele>81.9</ele>
        <time>2013-10-15T13:05:44Z</time>
      </trkpt>
      <trkpt lat="43.52182" lon="6.59191">
        <ele>81.28</ele>
        <time>2013-10-15T13:06:06Z</time>
      </trkpt>
      <trkpt lat="43.52183" lon="6.59217">
        <ele>81.22</ele>
        <time>2013-10-15T13:06:25Z</time>
      </trkpt>
      <trkpt lat="43.5218" lon="6.59243">
        <ele>81.98</ele>
        <time>2013-10-15T13:06:49Z</time>
      </trkpt>
      <trkpt lat="43.52185" lon="6.59267">
        <ele>81.01</ele>
        <time>2013-10-15T13:07:07Z</time>
      </trkpt>
      <trkpt lat="43.5219" lon="6.59292">
        <ele>79.83</ele>
        <time>2013-10-15T13:07:29Z</time>
      </trkpt>
      <trkpt lat="43.5219" lon="6.59292">
        <ele>79.83</ele>
        <time>2013-10-15T13:07:29Z</time>
      </trkpt>
      <trkpt lat="43.52229" lon="6.59344">
        <ele>79.49</ele>
        <time>2013-10-15T13:08:42Z</time>
      </trkpt>
      <trkpt lat="43.52239" lon="6.59346">
        <ele>77.7</ele>
        <time>2013-10-15T13:09:49Z</time>
      </trkpt>
      <trkpt lat="43.52244" lon="6.59352">
        <ele>77.35</ele>
        <time>2013-10-15T13:10:21Z</time>
      </trkpt>
      <trkpt lat="43.52244" lon="6.59352">
        <ele>77.35</ele>
        <time>2013-10-15T13:10:21Z</time>
      </trkpt>
      <trkpt lat="43.52246" lon="6.59352">
        <ele>76.2</ele>
        <time>2013-10-15T13:11:39Z</time>
      </trkpt>
      <trkpt lat="43.52234" lon="6.59374">
        <ele>74.86</ele>
        <time>2013-10-15T13:12:15Z</time>
      </trkpt>
      <trkpt lat="43.52231" lon="6.59401">
        <ele>75.34</ele>
        <time>2013-10-15T13:12:35Z</time>
      </trkpt>
      <trkpt lat="43.52234" lon="6.59426">
        <ele>76.23</ele>
        <time>2013-10-15T13:12:55Z</time>
      </trkpt>
      <trkpt lat="43.52236" lon="6.59451">
        <ele>77.18</ele>
        <time>2013-10-15T13:13:13Z</time>
      </trkpt>
      <trkpt lat="43.52238" lon="6.59477">
        <ele>78.26</ele>
        <time>2013-10-15T13:13:35Z</time>
      </trkpt>
      <trkpt lat="43.52243" lon="6.59503">
        <ele>79.31</ele>
        <time>2013-10-15T13:13:53Z</time>
      </trkpt>
      <trkpt lat="43.52245" lon="6.59529">
        <ele>81.84</ele>
        <time>2013-10-15T13:14:13Z</time>
      </trkpt>
      <trkpt lat="43.52245" lon="6.59529">
        <ele>81.84</ele>
        <time>2013-10-15T13:14:13Z</time>
      </trkpt>
      <trkpt lat="43.52253" lon="6.59554">
        <ele>83.55</ele>
        <time>2013-10-15T13:14:35Z</time>
      </trkpt>
      <trkpt lat="43.5226" lon="6.59577">
        <ele>84.99</ele>
        <time>2013-10-15T13:14:55Z</time>
      </trkpt>
      <trkpt lat="43.52272" lon="6.59596">
        <ele>86.12</ele>
        <time>2013-10-15T13:15:19Z</time>
      </trkpt>
      <trkpt lat="43.52282" lon="6.59618">
        <ele>86.81</ele>
        <time>2013-10-15T13:15:43Z</time>
      </trkpt>
      <trkpt lat="43.52291" lon="6.59641">
        <ele>87.72</ele>
        <time>2013-10-15T13:16:25Z</time>
      </trkpt>
      <trkpt lat="43.52299" lon="6.59663">
        <ele>88.33</ele>
        <time>2013-10-15T13:16:43Z</time>
      </trkpt>
      <trkpt lat="43.52302" lon="6.59688">
        <ele>88.95</ele>
        <time>2013-10-15T13:17:03Z</time>
      </trkpt>
      <trkpt lat="43.52293" lon="6.59712">
        <ele>90.14</ele>
        <time>2013-10-15T13:17:23Z</time>
      </trkpt>
      <trkpt lat="43.52293" lon="6.59712">
        <ele>90.14</ele>
        <time>2013-10-15T13:17:23Z</time>
      </trkpt>
      <trkpt lat="43.52296" lon="6.59737">
        <ele>90.04</ele>
        <time>2013-10-15T13:17:47Z</time>
      </trkpt>
      <trkpt lat="43.523" lon="6.59762">
        <ele>90.94</ele>
        <time>2013-10-15T13:18:09Z</time>
      </trkpt>
      <trkpt lat="43.52302" lon="6.59787">
        <ele>91.73</ele>
        <time>2013-10-15T13:18:29Z</time>
      </trkpt>
      <trkpt lat="43.52303" lon="6.59813">
        <ele>92.96</ele>
        <time>2013-10-15T13:18:53Z</time>
      </trkpt>
      <trkpt lat="43.52306" lon="6.59839">
        <ele>93.99</ele>
        <time>2013-10-15T13:19:23Z</time>
      </trkpt>
      <trkpt lat="43.52309" lon="6.59865">
        <ele>95.74</ele>
        <time>2013-10-15T13:19:49Z</time>
      </trkpt>
      <trkpt lat="43.52312" lon="6.59891">
        <ele>97.99</ele>
        <time>2013-10-15T13:20:11Z</time>
      </trkpt>
      <trkpt lat="43.52312" lon="6.59891">
        <ele>97.99</ele>
        <time>2013-10-15T13:20:11Z</time>
      </trkpt>
      <trkpt lat="43.52318" lon="6.59915">
        <ele>98.87</ele>
        <time>2013-10-15T13:20:37Z</time>
      </trkpt>
      <trkpt lat="43.52329" lon="6.59938">
        <ele>99.72</ele>
        <time>2013-10-15T13:21:07Z</time>
      </trkpt>
      <trkpt lat="43.52342" lon="6.59961">
        <ele>101.87</ele>
        <time>2013-10-15T13:21:55Z</time>
      </trkpt>
      <trkpt lat="43.52353" lon="6.59984">
        <ele>102.52</ele>
        <time>2013-10-15T13:22:05Z</time>
      </trkpt>
      <trkpt lat="43.52341" lon="6.59957">
        <ele>104.24</ele>
        <time>2013-10-15T13:22:35Z</time>
      </trkpt>
      <trkpt lat="43.52341" lon="6.59957">
        <ele>104.24</ele>
        <time>2013-10-15T13:22:35Z</time>
      </trkpt>
      <trkpt lat="43.52353" lon="6.59976">
        <ele>103.8</ele>
        <time>2013-10-15T13:23:50Z</time>
      </trkpt>
      <trkpt lat="43.52368" lon="6.5999">
        <ele>104.18</ele>
        <time>2013-10-15T13:24:12Z</time>
      </trkpt>
      <trkpt lat="43.52369" lon="6.60016">
        <ele>105.35</ele>
        <time>2013-10-15T13:24:32Z</time>
      </trkpt>
      <trkpt lat="43.52362" lon="6.6004">
        <ele>106.97</ele>
        <time>2013-10-15T13:24:58Z</time>
      </trkpt>
      <trkpt lat="43.52363" lon="6.60046">
        <ele>109.14</ele>
        <time>2013-10-15T13:25:52Z</time>
      </trkpt>
      <trkpt lat="43.52367" lon="6.60071">
        <ele>108.7</ele>
        <time>2013-10-15T13:26:14Z</time>
      </trkpt>
      <trkpt lat="43.52367" lon="6.60071">
        <ele>108.7</ele>
        <time>2013-10-15T13:26:14Z</time>
      </trkpt>
      <trkpt lat="43.5237" lon="6.60098">
        <ele>109.04</ele>
        <time>2013-10-15T13:26:34Z</time>
      </trkpt>
      <trkpt lat="43.52387" lon="6.6011">
        <ele>109.79</ele>
        <time>2013-10-15T13:27:04Z</time>
      </trkpt>
      <trkpt lat="43.52402" lon="6.60127">
        <ele>109.24</ele>
        <time>2013-10-15T13:27:34Z</time>
      </trkpt>
      <trkpt lat="43.52402" lon="6.60133">
        <ele>121.99</ele>
        <time>2013-10-15T13:29:14Z</time>
      </trkpt>
      <trkpt lat="43.52402" lon="6.60133">
        <ele>121.99</ele>
        <time>2013-10-15T13:29:14Z</time>
      </trkpt>
      <trkpt lat="43.52391" lon="6.60146">
        <ele>119.51</ele>
        <time>2013-10-15T13:29:38Z</time>
      </trkpt>
      <trkpt lat="43.52375" lon="6.60155">
        <ele>116.62</ele>
        <time>2013-10-15T13:30:04Z</time>
      </trkpt>
      <trkpt lat="43.52364" lon="6.60177">
        <ele>114.29</ele>
        <time>2013-10-15T13:30:26Z</time>
      </trkpt>
      <trkpt lat="43.52356" lon="6.60204">
        <ele>110.75</ele>
        <time>2013-10-15T13:31:55Z</time>
      </trkpt>
      <trkpt lat="43.52348" lon="6.60227">
        <ele>112.95</ele>
        <time>2013-10-15T13:32:16Z</time>
      </trkpt>
      <trkpt lat="43.52348" lon="6.60227">
        <ele>112.95</ele>
        <time>2013-10-15T13:32:16Z</time>
      </trkpt>
      <trkpt lat="43.52339" lon="6.60242">
        <ele>113.97</ele>
        <time>2013-10-15T13:34:45Z</time>
      </trkpt>
      <trkpt lat="43.52321" lon="6.60246">
        <ele>111.69</ele>
        <time>2013-10-15T13:35:24Z</time>
      </trkpt>
      <trkpt lat="43.52321" lon="6.60246">
        <ele>111.69</ele>
        <time>2013-10-15T13:35:24Z</time>
      </trkpt>
      <trkpt lat="43.52301" lon="6.60247">
        <ele>109.52</ele>
        <time>2013-10-15T13:35:44Z</time>
      </trkpt>
      <trkpt lat="43.52281" lon="6.60249">
        <ele>107.31</ele>
        <time>2013-10-15T13:36:06Z</time>
      </trkpt>
      <trkpt lat="43.52263" lon="6.60249">
        <ele>106.45</ele>
        <time>2013-10-15T13:36:24Z</time>
      </trkpt>
      <trkpt lat="43.52244" lon="6.60251">
        <ele>105.86</ele>
        <time>2013-10-15T13:36:38Z</time>
      </trkpt>
      <trkpt lat="43.52226" lon="6.60251">
        <ele>104.04</ele>
        <time>2013-10-15T13:37:00Z</time>
      </trkpt>
      <trkpt lat="43.52207" lon="6.60253">
        <ele>103.29</ele>
        <time>2013-10-15T13:37:18Z</time>
      </trkpt>
      <trkpt lat="43.52189" lon="6.60257">
        <ele>102.5</ele>
        <time>2013-10-15T13:37:36Z</time>
      </trkpt>
      <trkpt lat="43.52169" lon="6.60259">
        <ele>101.19</ele>
        <time>2013-10-15T13:37:56Z</time>
      </trkpt>
      <trkpt lat="43.52151" lon="6.60256">
        <ele>100.85</ele>
        <time>2013-10-15T13:38:12Z</time>
      </trkpt>
      <trkpt lat="43.52132" lon="6.60259">
        <ele>100.8</ele>
        <time>2013-10-15T13:38:30Z</time>
      </trkpt>
      <trkpt lat="43.52132" lon="6.60259">
        <ele>100.8</ele>
        <time>2013-10-15T13:38:30Z</time>
      </trkpt>
      <trkpt lat="43.52114" lon="6.60263">
        <ele>100.75</ele>
        <time>2013-10-15T13:38:50Z</time>
      </trkpt>
      <trkpt lat="43.52095" lon="6.60265">
        <ele>101.86</ele>
        <time>2013-10-15T13:39:12Z</time>
      </trkpt>
      <trkpt lat="43.52076" lon="6.6026">
        <ele>101.63</ele>
        <time>2013-10-15T13:39:38Z</time>
      </trkpt>
      <trkpt lat="43.52058" lon="6.6026">
        <ele>101.73</ele>
        <time>2013-10-15T13:39:50Z</time>
      </trkpt>
      <trkpt lat="43.52032" lon="6.60151">
        <ele>137.22</ele>
        <time>2013-10-15T13:40:13Z</time>
      </trkpt>
      <trkpt lat="43.52041" lon="6.60188">
        <ele>135.58</ele>
        <time>2013-10-15T13:40:16Z</time>
      </trkpt>
      <trkpt lat="43.52038" lon="6.60221">
        <ele>132.33</ele>
        <time>2013-10-15T13:40:22Z</time>
      </trkpt>
      <trkpt lat="43.5202" lon="6.60221">
        <ele>120.98</ele>
        <time>2013-10-15T13:40:46Z</time>
      </trkpt>
      <trkpt lat="43.5202" lon="6.60221">
        <ele>120.98</ele>
        <time>2013-10-15T13:40:46Z</time>
      </trkpt>
      <trkpt lat="43.52011" lon="6.60211">
        <ele>110.57</ele>
        <time>2013-10-15T13:41:46Z</time>
      </trkpt>
      <trkpt lat="43.51995" lon="6.60198">
        <ele>107.58</ele>
        <time>2013-10-15T13:42:00Z</time>
      </trkpt>
      <trkpt lat="43.5198" lon="6.60183">
        <ele>105.02</ele>
        <time>2013-10-15T13:42:18Z</time>
      </trkpt>
      <trkpt lat="43.51964" lon="6.6017">
        <ele>103.36</ele>
        <time>2013-10-15T13:42:32Z</time>
      </trkpt>
      <trkpt lat="43.51947" lon="6.60159">
        <ele>102.17</ele>
        <time>2013-10-15T13:42:48Z</time>
      </trkpt>
      <trkpt lat="43.51931" lon="6.60144">
        <ele>101.06</ele>
        <time>2013-10-15T13:43:07Z</time>
      </trkpt>
      <trkpt lat="43.51914" lon="6.60135">
        <ele>99.58</ele>
        <time>2013-10-15T13:43:23Z</time>
      </trkpt>
      <trkpt lat="43.51896" lon="6.60121">
        <ele>98.63</ele>
        <time>2013-10-15T13:43:41Z</time>
      </trkpt>
      <trkpt lat="43.51879" lon="6.60109">
        <ele>97.95</ele>
        <time>2013-10-15T13:43:59Z</time>
      </trkpt>
      <trkpt lat="43.51863" lon="6.60098">
        <ele>95.89</ele>
        <time>2013-10-15T13:44:17Z</time>
      </trkpt>
      <trkpt lat="43.51863" lon="6.60098">
        <ele>95.89</ele>
        <time>2013-10-15T13:44:17Z</time>
      </trkpt>
      <trkpt lat="43.51846" lon="6.60086">
        <ele>95.28</ele>
        <time>2013-10-15T13:44:35Z</time>
      </trkpt>
      <trkpt lat="43.51828" lon="6.60081">
        <ele>96.65</ele>
        <time>2013-10-15T13:44:55Z</time>
      </trkpt>
      <trkpt lat="43.5181" lon="6.60083">
        <ele>95.63</ele>
        <time>2013-10-15T13:45:17Z</time>
      </trkpt>
      <trkpt lat="43.5179" lon="6.60083">
        <ele>93.97</ele>
        <time>2013-10-15T13:45:37Z</time>
      </trkpt>
      <trkpt lat="43.51772" lon="6.60081">
        <ele>92.2</ele>
        <time>2013-10-15T13:45:59Z</time>
      </trkpt>
      <trkpt lat="43.51753" lon="6.6008">
        <ele>90.55</ele>
        <time>2013-10-15T13:46:19Z</time>
      </trkpt>
      <trkpt lat="43.51735" lon="6.60078">
        <ele>89.16</ele>
        <time>2013-10-15T13:46:43Z</time>
      </trkpt>
      <trkpt lat="43.51717" lon="6.60077">
        <ele>87.78</ele>
        <time>2013-10-15T13:47:03Z</time>
      </trkpt>
      <trkpt lat="43.51698" lon="6.60074">
        <ele>86.94</ele>
        <time>2013-10-15T13:47:23Z</time>
      </trkpt>
      <trkpt lat="43.51698" lon="6.60074">
        <ele>86.94</ele>
        <time>2013-10-15T13:47:23Z</time>
      </trkpt>
      <trkpt lat="43.51678" lon="6.60073">
        <ele>86.18</ele>
        <time>2013-10-15T13:47:45Z</time>
      </trkpt>
      <trkpt lat="43.51658" lon="6.60069">
        <ele>85.71</ele>
        <time>2013-10-15T13:48:09Z</time>
      </trkpt>
      <trkpt lat="43.5164" lon="6.60077">
        <ele>85.04</ele>
        <time>2013-10-15T13:48:27Z</time>
      </trkpt>
      <trkpt lat="43.51622" lon="6.60073">
        <ele>84.87</ele>
        <time>2013-10-15T13:48:45Z</time>
      </trkpt>
      <trkpt lat="43.51604" lon="6.6007">
        <ele>84.81</ele>
        <time>2013-10-15T13:49:05Z</time>
      </trkpt>
      <trkpt lat="43.51585" lon="6.6007">
        <ele>85.26</ele>
        <time>2013-10-15T13:49:23Z</time>
      </trkpt>
      <trkpt lat="43.51566" lon="6.6007">
        <ele>85.66</ele>
        <time>2013-10-15T13:49:45Z</time>
      </trkpt>
      <trkpt lat="43.51548" lon="6.60069">
        <ele>86.07</ele>
        <time>2013-10-15T13:50:05Z</time>
      </trkpt>
      <trkpt lat="43.5153" lon="6.60067">
        <ele>85.52</ele>
        <time>2013-10-15T13:50:27Z</time>
      </trkpt>
      <trkpt lat="43.5153" lon="6.60067">
        <ele>85.52</ele>
        <time>2013-10-15T13:50:27Z</time>
      </trkpt>
      <trkpt lat="43.51509" lon="6.60065">
        <ele>86.34</ele>
        <time>2013-10-15T13:51:09Z</time>
      </trkpt>
      <trkpt lat="43.51493" lon="6.60048">
        <ele>86.56</ele>
        <time>2013-10-15T13:51:27Z</time>
      </trkpt>
      <trkpt lat="43.51478" lon="6.60031">
        <ele>87.92</ele>
        <time>2013-10-15T13:51:47Z</time>
      </trkpt>
      <trkpt lat="43.51463" lon="6.60013">
        <ele>88.99</ele>
        <time>2013-10-15T13:52:05Z</time>
      </trkpt>
      <trkpt lat="43.5145" lon="6.59996">
        <ele>89.52</ele>
        <time>2013-10-15T13:52:23Z</time>
      </trkpt>
      <trkpt lat="43.51434" lon="6.59983">
        <ele>89.96</ele>
        <time>2013-10-15T13:52:43Z</time>
      </trkpt>
      <trkpt lat="43.51416" lon="6.59983">
        <ele>88.85</ele>
        <time>2013-10-15T13:53:03Z</time>
      </trkpt>
      <trkpt lat="43.51401" lon="6.59998">
        <ele>87.78</ele>
        <time>2013-10-15T13:53:19Z</time>
      </trkpt>
      <trkpt lat="43.51401" lon="6.59998">
        <ele>87.78</ele>
        <time>2013-10-15T13:53:19Z</time>
      </trkpt>
      <trkpt lat="43.51386" lon="6.60015">
        <ele>86.57</ele>
        <time>2013-10-15T13:53:37Z</time>
      </trkpt>
      <trkpt lat="43.51372" lon="6.60034">
        <ele>86.42</ele>
        <time>2013-10-15T13:53:57Z</time>
      </trkpt>
      <trkpt lat="43.51358" lon="6.60052">
        <ele>86.11</ele>
        <time>2013-10-15T13:54:13Z</time>
      </trkpt>
      <trkpt lat="43.51345" lon="6.6007">
        <ele>84.48</ele>
        <time>2013-10-15T13:54:31Z</time>
      </trkpt>
      <trkpt lat="43.51331" lon="6.60087">
        <ele>82.84</ele>
        <time>2013-10-15T13:54:49Z</time>
      </trkpt>
      <trkpt lat="43.51316" lon="6.60105">
        <ele>81.93</ele>
        <time>2013-10-15T13:55:09Z</time>
      </trkpt>
      <trkpt lat="43.51302" lon="6.60123">
        <ele>82.16</ele>
        <time>2013-10-15T13:55:31Z</time>
      </trkpt>
      <trkpt lat="43.51286" lon="6.6014">
        <ele>81.35</ele>
        <time>2013-10-15T13:55:53Z</time>
      </trkpt>
      <trkpt lat="43.5127" lon="6.60154">
        <ele>80.42</ele>
        <time>2013-10-15T13:56:13Z</time>
      </trkpt>
      <trkpt lat="43.51254" lon="6.60168">
        <ele>80.1</ele>
        <time>2013-10-15T13:56:33Z</time>
      </trkpt>
      <trkpt lat="43.51254" lon="6.60168">
        <ele>80.1</ele>
        <time>2013-10-15T13:56:33Z</time>
      </trkpt>
      <trkpt lat="43.51236" lon="6.60178">
        <ele>78.74</ele>
        <time>2013-10-15T13:56:49Z</time>
      </trkpt>
      <trkpt lat="43.51221" lon="6.60192">
        <ele>77.87</ele>
        <time>2013-10-15T13:57:11Z</time>
      </trkpt>
      <trkpt lat="43.51204" lon="6.60202">
        <ele>77.78</ele>
        <time>2013-10-15T13:57:35Z</time>
      </trkpt>
      <trkpt lat="43.51185" lon="6.60211">
        <ele>77.16</ele>
        <time>2013-10-15T13:57:55Z</time>
      </trkpt>
      <trkpt lat="43.51167" lon="6.60219">
        <ele>77.43</ele>
        <time>2013-10-15T13:58:15Z</time>
      </trkpt>
      <trkpt lat="43.51149" lon="6.6023">
        <ele>77.26</ele>
        <time>2013-10-15T13:58:33Z</time>
      </trkpt>
      <trkpt lat="43.51131" lon="6.6024">
        <ele>76.95</ele>
        <time>2013-10-15T13:58:51Z</time>
      </trkpt>
      <trkpt lat="43.51114" lon="6.60248">
        <ele>76.82</ele>
        <time>2013-10-15T13:59:11Z</time>
      </trkpt>
      <trkpt lat="43.51096" lon="6.60255">
        <ele>76.33</ele>
        <time>2013-10-15T13:59:29Z</time>
      </trkpt>
      <trkpt lat="43.51096" lon="6.60255">
        <ele>76.33</ele>
        <time>2013-10-15T13:59:29Z</time>
      </trkpt>
      <trkpt lat="43.51077" lon="6.60254">
        <ele>74.71</ele>
        <time>2013-10-15T13:59:49Z</time>
      </trkpt>
      <trkpt lat="43.51062" lon="6.6024">
        <ele>73.29</ele>
        <time>2013-10-15T14:00:09Z</time>
      </trkpt>
      <trkpt lat="43.51046" lon="6.60225">
        <ele>73.02</ele>
        <time>2013-10-15T14:00:27Z</time>
      </trkpt>
      <trkpt lat="43.51033" lon="6.60207">
        <ele>73.07</ele>
        <time>2013-10-15T14:00:45Z</time>
      </trkpt>
      <trkpt lat="43.51016" lon="6.60192">
        <ele>72.55</ele>
        <time>2013-10-15T14:01:03Z</time>
      </trkpt>
      <trkpt lat="43.51" lon="6.60177">
        <ele>71.31</ele>
        <time>2013-10-15T14:01:21Z</time>
      </trkpt>
      <trkpt lat="43.50987" lon="6.6016">
        <ele>72.47</ele>
        <time>2013-10-15T14:01:39Z</time>
      </trkpt>
      <trkpt lat="43.50974" lon="6.60141">
        <ele>70.69</ele>
        <time>2013-10-15T14:01:59Z</time>
      </trkpt>
      <trkpt lat="43.50968" lon="6.60117">
        <ele>70.76</ele>
        <time>2013-10-15T14:02:17Z</time>
      </trkpt>
      <trkpt lat="43.50968" lon="6.60117">
        <ele>70.76</ele>
        <time>2013-10-15T14:02:17Z</time>
      </trkpt>
      <trkpt lat="43.50966" lon="6.6009">
        <ele>71.36</ele>
        <time>2013-10-15T14:02:35Z</time>
      </trkpt>
      <trkpt lat="43.5096" lon="6.60062">
        <ele>72.03</ele>
        <time>2013-10-15T14:02:59Z</time>
      </trkpt>
      <trkpt lat="43.5095" lon="6.60036">
        <ele>71.6</ele>
        <time>2013-10-15T14:03:21Z</time>
      </trkpt>
      <trkpt lat="43.50933" lon="6.60028">
        <ele>69.39</ele>
        <time>2013-10-15T14:03:39Z</time>
      </trkpt>
      <trkpt lat="43.50915" lon="6.60022">
        <ele>66.8</ele>
        <time>2013-10-15T14:03:57Z</time>
      </trkpt>
      <trkpt lat="43.50895" lon="6.60021">
        <ele>64.22</ele>
        <time>2013-10-15T14:04:21Z</time>
      </trkpt>
      <trkpt lat="43.50878" lon="6.60014">
        <ele>63.24</ele>
        <time>2013-10-15T14:04:45Z</time>
      </trkpt>
      <trkpt lat="43.50861" lon="6.60003">
        <ele>64.1</ele>
        <time>2013-10-15T14:05:07Z</time>
      </trkpt>
      <trkpt lat="43.50844" lon="6.59993">
        <ele>63.62</ele>
        <time>2013-10-15T14:05:25Z</time>
      </trkpt>
      <trkpt lat="43.50844" lon="6.59993">
        <ele>63.62</ele>
        <time>2013-10-15T14:05:25Z</time>
      </trkpt>
      <trkpt lat="43.50826" lon="6.59985">
        <ele>64.26</ele>
        <time>2013-10-15T14:05:45Z</time>
      </trkpt>
      <trkpt lat="43.50805" lon="6.59981">
        <ele>64.74</ele>
        <time>2013-10-15T14:06:05Z</time>
      </trkpt>
      <trkpt lat="43.50787" lon="6.59976">
        <ele>65.67</ele>
        <time>2013-10-15T14:06:25Z</time>
      </trkpt>
      <trkpt lat="43.50768" lon="6.59976">
        <ele>65.78</ele>
        <time>2013-10-15T14:06:43Z</time>
      </trkpt>
      <trkpt lat="43.5075" lon="6.59974">
        <ele>65.28</ele>
        <time>2013-10-15T14:07:01Z</time>
      </trkpt>
      <trkpt lat="43.50731" lon="6.59971">
        <ele>64.25</ele>
        <time>2013-10-15T14:07:25Z</time>
      </trkpt>
      <trkpt lat="43.50711" lon="6.59968">
        <ele>62.67</ele>
        <time>2013-10-15T14:07:43Z</time>
      </trkpt>
      <trkpt lat="43.50693" lon="6.59973">
        <ele>60.72</ele>
        <time>2013-10-15T14:08:07Z</time>
      </trkpt>
      <trkpt lat="43.50678" lon="6.59989">
        <ele>60.8</ele>
        <time>2013-10-15T14:08:33Z</time>
      </trkpt>
      <trkpt lat="43.50678" lon="6.59989">
        <ele>60.8</ele>
        <time>2013-10-15T14:08:33Z</time>
      </trkpt>
      <trkpt lat="43.50665" lon="6.60008">
        <ele>61.32</ele>
        <time>2013-10-15T14:08:53Z</time>
      </trkpt>
      <trkpt lat="43.50652" lon="6.60026">
        <ele>62.31</ele>
        <time>2013-10-15T14:09:11Z</time>
      </trkpt>
      <trkpt lat="43.50634" lon="6.60024">
        <ele>63.71</ele>
        <time>2013-10-15T14:09:37Z</time>
      </trkpt>
      <trkpt lat="43.5062" lon="6.60008">
        <ele>65.21</ele>
        <time>2013-10-15T14:10:01Z</time>
      </trkpt>
      <trkpt lat="43.50607" lon="6.5999">
        <ele>65.58</ele>
        <time>2013-10-15T14:10:25Z</time>
      </trkpt>
      <trkpt lat="43.50591" lon="6.59977">
        <ele>65.36</ele>
        <time>2013-10-15T14:11:01Z</time>
      </trkpt>
      <trkpt lat="43.50574" lon="6.5997">
        <ele>63.05</ele>
        <time>2013-10-15T14:11:21Z</time>
      </trkpt>
      <trkpt lat="43.50574" lon="6.5997">
        <ele>63.05</ele>
        <time>2013-10-15T14:11:21Z</time>
      </trkpt>
      <trkpt lat="43.50557" lon="6.59958">
        <ele>62.3</ele>
        <time>2013-10-15T14:11:39Z</time>
      </trkpt>
      <trkpt lat="43.50541" lon="6.59945">
        <ele>61.1</ele>
        <time>2013-10-15T14:12:05Z</time>
      </trkpt>
      <trkpt lat="43.50524" lon="6.59934">
        <ele>59.01</ele>
        <time>2013-10-15T14:12:23Z</time>
      </trkpt>
      <trkpt lat="43.50517" lon="6.59909">
        <ele>59.54</ele>
        <time>2013-10-15T14:12:43Z</time>
      </trkpt>
      <trkpt lat="43.50516" lon="6.59882">
        <ele>61.95</ele>
        <time>2013-10-15T14:13:07Z</time>
      </trkpt>
      <trkpt lat="43.50515" lon="6.59857">
        <ele>63.46</ele>
        <time>2013-10-15T14:13:27Z</time>
      </trkpt>
      <trkpt lat="43.50513" lon="6.59831">
        <ele>64.57</ele>
        <time>2013-10-15T14:13:49Z</time>
      </trkpt>
      <trkpt lat="43.50516" lon="6.59805">
        <ele>65.46</ele>
        <time>2013-10-15T14:14:13Z</time>
      </trkpt>
      <trkpt lat="43.50516" lon="6.59805">
        <ele>65.46</ele>
        <time>2013-10-15T14:14:13Z</time>
      </trkpt>
      <trkpt lat="43.50522" lon="6.5978">
        <ele>63.85</ele>
        <time>2013-10-15T14:14:39Z</time>
      </trkpt>
      <trkpt lat="43.5051" lon="6.59761">
        <ele>62.75</ele>
        <time>2013-10-15T14:15:03Z</time>
      </trkpt>
      <trkpt lat="43.50498" lon="6.59742">
        <ele>60.23</ele>
        <time>2013-10-15T14:15:23Z</time>
      </trkpt>
      <trkpt lat="43.50496" lon="6.59717">
        <ele>60.57</ele>
        <time>2013-10-15T14:15:45Z</time>
      </trkpt>
      <trkpt lat="43.50498" lon="6.5969">
        <ele>60.74</ele>
        <time>2013-10-15T14:16:03Z</time>
      </trkpt>
      <trkpt lat="43.50498" lon="6.59663">
        <ele>60.7</ele>
        <time>2013-10-15T14:16:33Z</time>
      </trkpt>
      <trkpt lat="43.50501" lon="6.59639">
        <ele>60.12</ele>
        <time>2013-10-15T14:16:57Z</time>
      </trkpt>
      <trkpt lat="43.5049" lon="6.59617">
        <ele>60.65</ele>
        <time>2013-10-15T14:17:19Z</time>
      </trkpt>
      <trkpt lat="43.5049" lon="6.59617">
        <ele>60.65</ele>
        <time>2013-10-15T14:17:19Z</time>
      </trkpt>
      <trkpt lat="43.50477" lon="6.596">
        <ele>60.2</ele>
        <time>2013-10-15T14:17:44Z</time>
      </trkpt>
      <trkpt lat="43.5046" lon="6.59588">
        <ele>59.22</ele>
        <time>2013-10-15T14:18:12Z</time>
      </trkpt>
      <trkpt lat="43.50445" lon="6.59572">
        <ele>58.14</ele>
        <time>2013-10-15T14:18:34Z</time>
      </trkpt>
      <trkpt lat="43.50433" lon="6.59553">
        <ele>56.94</ele>
        <time>2013-10-15T14:18:58Z</time>
      </trkpt>
      <trkpt lat="43.50424" lon="6.59531">
        <ele>56.96</ele>
        <time>2013-10-15T14:19:22Z</time>
      </trkpt>
      <trkpt lat="43.5043" lon="6.59506">
        <ele>54.95</ele>
        <time>2013-10-15T14:19:46Z</time>
      </trkpt>
      <trkpt lat="43.5043" lon="6.59506">
        <ele>54.95</ele>
        <time>2013-10-15T14:19:46Z</time>
      </trkpt>
      <trkpt lat="43.50443" lon="6.59486">
        <ele>51.64</ele>
        <time>2013-10-15T14:20:34Z</time>
      </trkpt>
      <trkpt lat="43.50455" lon="6.59466">
        <ele>51.54</ele>
        <time>2013-10-15T14:20:52Z</time>
      </trkpt>
      <trkpt lat="43.50466" lon="6.59447">
        <ele>50.3</ele>
        <time>2013-10-15T14:21:16Z</time>
      </trkpt>
      <trkpt lat="43.50479" lon="6.59428">
        <ele>48.8</ele>
        <time>2013-10-15T14:21:42Z</time>
      </trkpt>
      <trkpt lat="43.5049" lon="6.59406">
        <ele>46.26</ele>
        <time>2013-10-15T14:22:04Z</time>
      </trkpt>
      <trkpt lat="43.50493" lon="6.59381">
        <ele>46.15</ele>
        <time>2013-10-15T14:22:46Z</time>
      </trkpt>
      <trkpt lat="43.50491" lon="6.59373">
        <ele>45.38</ele>
        <time>2013-10-15T14:23:12Z</time>
      </trkpt>
      <trkpt lat="43.50491" lon="6.59373">
        <ele>45.38</ele>
        <time>2013-10-15T14:23:12Z</time>
      </trkpt>
      <trkpt lat="43.50489" lon="6.59375">
        <ele>44</ele>
        <time>2013-10-15T14:23:44Z</time>
      </trkpt>
      <trkpt lat="43.50491" lon="6.59373">
        <ele>43.99</ele>
        <time>2013-10-15T14:24:06Z</time>
      </trkpt>
      <trkpt lat="43.50488" lon="6.59372">
        <ele>44.54</ele>
        <time>2013-10-15T14:25:30Z</time>
      </trkpt>
      <trkpt lat="43.50488" lon="6.59344">
        <ele>45.52</ele>
        <time>2013-10-15T14:25:56Z</time>
      </trkpt>
      <trkpt lat="43.50489" lon="6.59318">
        <ele>45.75</ele>
        <time>2013-10-15T14:26:24Z</time>
      </trkpt>
      <trkpt lat="43.50489" lon="6.59318">
        <ele>45.75</ele>
        <time>2013-10-15T14:26:24Z</time>
      </trkpt>
      <trkpt lat="43.50495" lon="6.59293">
        <ele>45.67</ele>
        <time>2013-10-15T14:26:44Z</time>
      </trkpt>
      <trkpt lat="43.50497" lon="6.59266">
        <ele>46.05</ele>
        <time>2013-10-15T14:27:02Z</time>
      </trkpt>
      <trkpt lat="43.50497" lon="6.5924">
        <ele>46.33</ele>
        <time>2013-10-15T14:27:22Z</time>
      </trkpt>
      <trkpt lat="43.5049" lon="6.59217">
        <ele>45.84</ele>
        <time>2013-10-15T14:27:44Z</time>
      </trkpt>
      <trkpt lat="43.50477" lon="6.59199">
        <ele>44.83</ele>
        <time>2013-10-15T14:28:06Z</time>
      </trkpt>
      <trkpt lat="43.50462" lon="6.59182">
        <ele>44.6</ele>
        <time>2013-10-15T14:28:26Z</time>
      </trkpt>
      <trkpt lat="43.50447" lon="6.59168">
        <ele>43.79</ele>
        <time>2013-10-15T14:28:48Z</time>
      </trkpt>
      <trkpt lat="43.5043" lon="6.59157">
        <ele>44.27</ele>
        <time>2013-10-15T14:29:06Z</time>
      </trkpt>
      <trkpt lat="43.50413" lon="6.59154">
        <ele>43.91</ele>
        <time>2013-10-15T14:29:30Z</time>
      </trkpt>
      <trkpt lat="43.50413" lon="6.59154">
        <ele>43.91</ele>
        <time>2013-10-15T14:29:30Z</time>
      </trkpt>
      <trkpt lat="43.50395" lon="6.59148">
        <ele>42.15</ele>
        <time>2013-10-15T14:29:52Z</time>
      </trkpt>
      <trkpt lat="43.50376" lon="6.59143">
        <ele>41.54</ele>
        <time>2013-10-15T14:30:16Z</time>
      </trkpt>
      <trkpt lat="43.50358" lon="6.59137">
        <ele>39.1</ele>
        <time>2013-10-15T14:30:50Z</time>
      </trkpt>
      <trkpt lat="43.50358" lon="6.59111">
        <ele>36.88</ele>
        <time>2013-10-15T14:31:20Z</time>
      </trkpt>
      <trkpt lat="43.50362" lon="6.59111">
        <ele>33.25</ele>
        <time>2013-10-15T14:31:36Z</time>
      </trkpt>
      <trkpt lat="43.5035" lon="6.5909">
        <ele>33.69</ele>
        <time>2013-10-15T14:32:08Z</time>
      </trkpt>
      <trkpt lat="43.50368" lon="6.59084">
        <ele>33.16</ele>
        <time>2013-10-15T14:32:42Z</time>
      </trkpt>
      <trkpt lat="43.50384" lon="6.59074">
        <ele>26.17</ele>
        <time>2013-10-15T14:33:22Z</time>
      </trkpt>
      <trkpt lat="43.50402" lon="6.5907">
        <ele>22.94</ele>
        <time>2013-10-15T14:33:42Z</time>
      </trkpt>
      <trkpt lat="43.50421" lon="6.59069">
        <ele>23.65</ele>
        <time>2013-10-15T14:33:56Z</time>
      </trkpt>
      <trkpt lat="43.5044" lon="6.59066">
        <ele>24.76</ele>
        <time>2013-10-15T14:34:20Z</time>
      </trkpt>
      <trkpt lat="43.5044" lon="6.59066">
        <ele>24.76</ele>
        <time>2013-10-15T14:34:20Z</time>
      </trkpt>
      <trkpt lat="43.50457" lon="6.59071">
        <ele>25.83</ele>
        <time>2013-10-15T14:34:58Z</time>
      </trkpt>
      <trkpt lat="43.50457" lon="6.59066">
        <ele>25.97</ele>
        <time>2013-10-15T14:35:24Z</time>
      </trkpt>
    </trkseg>
  </trk>
</gpx>